Maersk Nimes — VRFO7 — position and weather

sailwx.info

Track history (hours):
 
Tides and Currents Weather Stations Pressure Air Temp Water Temp Dewpoint Dewpoint Depression Visibility Wind Speed Wind Dir Waves Ship Positions

Maersk Nimes

Last reported at 2015-Mar-04 18:34 UTC. Time now 2015-Mar-04 18:56 UTC.
Position N 55°01' E 013°51'.

Length 210 m; draft 10.3 m.

Type: Cargo ship. MMSI: 477559200.

Date/timePositionNaut miles runAvg speedWind from/ knotsBaromVisibWave heightAir tempDewpointWater temp
2015-Mar-04 18:34N 55°01' E 013°51'1918.6
2015-Mar-04 17:33N 55°12' E 014°17'1919.0
2015-Mar-04 16:34N 55°27' E 014°38'1919.1
2015-Mar-04 15:34N 55°36' E 015°07'35514.5
2015-Mar-03 15:04N 59°37' E 023°14'3313.2
2015-Mar-03 12:33N 59°46' E 024°17'1313.2
2015-Mar-03 11:33N 59°49' E 024°43'5513.2
2015-Mar-03 07:20N 60°01' E 026°31'1013.0
2015-Mar-03 06:33N 60°00' E 026°51'1212.0
2015-Mar-03 05:32N 60°03' E 027°15'8810.9
2015-Mar-02 21:31N 59°53' E 030°09'2 0.8
2015-Mar-02 19:28N 59°53' E 030°12'0 0.0
2015-Mar-02 18:19N 59°53' E 030°12'0 0.0
2015-Mar-02 17:16N 59°53' E 030°12'0 0.0
2015-Mar-02 16:22N 59°53' E 030°12'0 0.0
2015-Mar-02 15:19N 59°53' E 030°12'0 0.0
2015-Mar-02 11:18N 59°53' E 030°12'0 0.0
2015-Mar-02 10:33N 59°53' E 030°12'0 0.0
2015-Mar-02 06:18N 59°53' E 030°12'0 0.0
2015-Mar-02 05:33N 59°53' E 030°12'0 0.0
2015-Mar-02 04:33N 59°53' E 030°12'0 0.0
2015-Mar-02 03:27N 59°53' E 030°12'0 0.0
2015-Mar-02 00:21N 59°53' E 030°12'1 1.2
2015-Mar-01 23:33N 59°53' E 030°13'0 0.2
2015-Mar-01 22:32N 59°54' E 030°14'0 0.0
2015-Mar-01 21:32N 59°54' E 030°14'0 0.0
2015-Mar-01 20:32N 59°54' E 030°14'0 0.0
2015-Mar-01 19:32N 59°54' E 030°14'0 0.0
2015-Mar-01 18:32N 59°54' E 030°14'0 0.0
2015-Mar-01 17:32N 59°54' E 030°14'0 0.0
2015-Mar-01 16:32N 59°54' E 030°14'0 0.0
2015-Mar-01 15:32N 59°54' E 030°14'0 0.0
2015-Mar-01 14:32N 59°54' E 030°14'0 0.0
2015-Mar-01 13:32N 59°54' E 030°14'0 0.0
2015-Mar-01 12:32N 59°54' E 030°14'0 0.0
2015-Mar-01 11:29N 59°54' E 030°14'0 0.0
2015-Mar-01 10:32N 59°54' E 030°14'0 0.0
2015-Mar-01 09:32N 59°54' E 030°14'0 0.0
2015-Mar-01 08:32N 59°54' E 030°14'0 0.0
2015-Mar-01 07:32N 59°54' E 030°14'0 0.0
2015-Mar-01 06:32N 59°54' E 030°14'0 0.0
2015-Mar-01 05:32N 59°54' E 030°14'2 2.4
2015-Mar-01 04:33N 59°53' E 030°09'76 7.3
2015-Feb-28 18:15N 60°09' E 027°41'812.2
2015-Feb-28 17:33N 60°05' E 027°27'1312.6
2015-Feb-28 16:33N 59°58' E 027°05'1212.1
2015-Feb-28 15:33N 59°60' E 026°41'1312.6
2015-Feb-28 14:33N 59°56' E 026°17'1514.9
2015-Feb-28 13:34N 59°52' E 025°48'1716.8
2015-Feb-28 12:34N 59°49' E 025°16'1716.9
2015-Feb-28 11:33N 59°45' E 024°43'1716.6
2015-Feb-28 10:33N 59°41' E 024°11'1818.3
2015-Feb-28 09:33N 59°35' E 023°36'2019.8
2015-Feb-28 08:32N 59°28' E 022°59'4219.5
2015-Feb-28 06:23N 59°06' E 021°49'14019.9
2015-Feb-27 23:19N 57°14' E 019°10'15319.5
2015-Feb-27 15:28N 55°39' E 015°33'1819.8
2015-Feb-27 14:34N 55°31' E 015°04'1919.2
2015-Feb-27 13:34N 55°21' E 014°36'2019.6
2015-Feb-27 12:34N 55°05' E 014°15'1919.0
2015-Feb-27 11:34N 54°57' E 013°45'1919.3
2015-Feb-27 10:34N 54°51' E 013°13'1918.6
2015-Feb-27 09:33N 54°45' E 012°43'1716.7
2015-Feb-27 08:33N 54°36' E 012°19'1313.5
2015-Feb-27 07:34N 54°25' E 012°05'1818.3
2015-Feb-27 06:34N 54°28' E 011°34'1818.1
2015-Feb-27 05:33N 54°35' E 011°06'11414.2
2015-Feb-26 21:33N 56°28' E 011°33'1817.7
2015-Feb-26 20:33N 56°43' E 011°49'1716.7
2015-Feb-26 19:32N 56°60' E 011°42'1717.6
2015-Feb-26 18:33N 57°16' E 011°31'1817.7
2015-Feb-26 17:33N 57°32' E 011°16'1818.0
2015-Feb-26 16:33N 57°44' E 010°51'1211.7
2015-Feb-26 15:33N 57°48' E 010°31'1716.6
2015-Feb-26 14:33N 57°46' E 009°59'8119.6
2015-Feb-26 10:24N 57°03' E 007°51'9619.8
2015-Feb-26 05:33N 55°35' E 006°44'1615.8
2015-Feb-26 04:33N 55°19' E 006°44'1919.5
2015-Feb-26 03:33N 55°00' E 006°53'2120.9
2015-Feb-26 02:33N 54°41' E 007°08'1717.3
2015-Feb-26 01:33N 54°25' E 007°19'1918.7
2015-Feb-26 00:33N 54°08' E 007°33'1817.6
2015-Feb-25 23:33N 53°53' E 007°48'1413.9
2015-Feb-25 22:33N 53°47' E 008°10'1615.5
2015-Feb-25 21:33N 53°37' E 008°29'2 1.8
2015-Feb-25 20:33N 53°35' E 008°31'0 0.0
2015-Feb-25 19:33N 53°35' E 008°31'0 0.0
2015-Feb-25 18:33N 53°35' E 008°31'0 0.0
2015-Feb-25 17:33N 53°35' E 008°31'0 0.0
2015-Feb-25 16:33N 53°35' E 008°31'0 0.0
2015-Feb-25 15:33N 53°35' E 008°31'0 0.0
2015-Feb-25 14:33N 53°35' E 008°31'0 0.0
2015-Feb-25 13:33N 53°35' E 008°31'0 0.0
2015-Feb-25 12:33N 53°35' E 008°31'0 0.0
2015-Feb-25 11:33N 53°35' E 008°31'0 0.0
2015-Feb-25 10:33N 53°35' E 008°31'0 0.0
2015-Feb-25 09:33N 53°35' E 008°31'0 0.0
2015-Feb-25 08:33N 53°35' E 008°31'0 0.0
2015-Feb-25 07:33N 53°35' E 008°31'0 0.0
2015-Feb-25 06:33N 53°35' E 008°31'0 0.0
2015-Feb-25 05:33N 53°35' E 008°31'0 0.0
2015-Feb-25 04:33N 53°35' E 008°31'0 0.0
2015-Feb-25 03:33N 53°35' E 008°31'0 0.0
2015-Feb-25 02:33N 53°35' E 008°31'0 0.0
2015-Feb-25 01:33N 53°35' E 008°31'0 0.0
2015-Feb-25 00:33N 53°35' E 008°31'0 0.0
2015-Feb-24 23:33N 53°35' E 008°31'0 0.0
2015-Feb-24 22:33N 53°35' E 008°31'0 0.0
2015-Feb-24 21:33N 53°35' E 008°31'0 0.0
2015-Feb-24 20:33N 53°35' E 008°31'0 0.0
2015-Feb-24 19:33N 53°35' E 008°31'0 0.0
2015-Feb-24 18:33N 53°35' E 008°31'0 0.0
2015-Feb-24 17:33N 53°35' E 008°31'1 1.1
2015-Feb-24 16:33N 53°36' E 008°30'1111.3
2015-Feb-24 15:33N 53°43' E 008°16'1312.8
2015-Feb-24 14:34N 53°51' E 007°58'7 6.3
2015-Feb-24 13:29N 53°55' E 007°49'0 0.1
2015-Feb-24 12:29N 53°55' E 007°49'0 0.0
2015-Feb-24 11:11N 53°55' E 007°49'0 0.0
2015-Feb-24 10:29N 53°55' E 007°49'0 0.0
2015-Feb-24 09:32N 53°55' E 007°49'0 0.0
2015-Feb-24 08:23N 53°55' E 007°49'0 0.0
2015-Feb-24 07:29N 53°55' E 007°49'0 0.0
2015-Feb-24 06:26N 53°55' E 007°49'0 0.0
2015-Feb-24 05:29N 53°55' E 007°49'0 0.0
2015-Feb-24 04:23N 53°55' E 007°49'0 0.0
2015-Feb-24 03:29N 53°55' E 007°49'0 0.0
2015-Feb-24 02:23N 53°55' E 007°49'0 0.0
2015-Feb-24 01:23N 53°55' E 007°49'0 0.0
2015-Feb-24 00:32N 53°55' E 007°49'0 0.0
2015-Feb-23 23:32N 53°55' E 007°49'0 0.0
2015-Feb-23 22:32N 53°55' E 007°49'0 0.1
2015-Feb-23 21:29N 53°55' E 007°49'0 0.1
2015-Feb-23 20:32N 53°55' E 007°49'0 0.1
2015-Feb-23 19:29N 53°55' E 007°49'0 0.0
2015-Feb-23 18:32N 53°55' E 007°49'0 0.0
2015-Feb-23 17:32N 53°55' E 007°49'0 0.1
2015-Feb-23 16:26N 53°55' E 007°49'0 0.1
2015-Feb-23 15:23N 53°55' E 007°49'0 0.0
2015-Feb-23 14:32N 53°55' E 007°49'0 0.0
2015-Feb-23 13:17N 53°55' E 007°49'0 0.0
2015-Feb-23 12:26N 53°55' E 007°49'0 0.0
2015-Feb-23 11:20N 53°55' E 007°49'0 0.0
2015-Feb-23 10:23N 53°55' E 007°49'0 0.0
2015-Feb-23 09:23N 53°55' E 007°49'0 0.1
2015-Feb-23 08:29N 53°55' E 007°49'0 0.0
2015-Feb-23 07:26N 53°55' E 007°49'0 0.1
2015-Feb-23 06:29N 53°55' E 007°49'0 0.0
2015-Feb-23 05:32N 53°55' E 007°49'0 0.0
2015-Feb-23 04:32N 53°55' E 007°49'0 0.0
2015-Feb-23 03:32N 53°55' E 007°49'0 0.0
2015-Feb-23 02:29N 53°55' E 007°49'0 0.0
2015-Feb-23 01:32N 53°55' E 007°49'0 0.0
2015-Feb-23 00:23N 53°55' E 007°49'0 0.4
2015-Feb-22 23:33N 53°55' E 007°49'10 9.8
2015-Feb-22 22:33N 53°50' E 008°04'1616.1
2015-Feb-22 21:33N 53°39' E 008°24'6 5.8
2015-Feb-22 20:31N 53°35' E 008°31'0 0.0
2015-Feb-22 19:31N 53°35' E 008°31'  
Track history (hours):
 
Tides and Currents Weather Stations Pressure Air Temp Water Temp Dewpoint Dewpoint Depression Visibility Wind Speed Wind Dir Waves Ship Positions

Maersk Nimes

Last reported at 2015-Mar-04 18:34 UTC. Time now 2015-Mar-04 18:56 UTC.
Position N 55°01' E 013°51'.

Length 210 m; draft 10.3 m.

Type: Cargo ship. MMSI: 477559200.

Date/timePositionNaut miles runAvg speedWind from/ knotsBaromVisibWave heightAir tempDewpointWater temp
2015-Mar-04 18:34N 55°01' E 013°51'1918.6
2015-Mar-04 17:33N 55°12' E 014°17'1919.0
2015-Mar-04 16:34N 55°27' E 014°38'1919.1
2015-Mar-04 15:34N 55°36' E 015°07'35514.5
2015-Mar-03 15:04N 59°37' E 023°14'3313.2
2015-Mar-03 12:33N 59°46' E 024°17'1313.2
2015-Mar-03 11:33N 59°49' E 024°43'5513.2
2015-Mar-03 07:20N 60°01' E 026°31'1013.0
2015-Mar-03 06:33N 60°00' E 026°51'1212.0
2015-Mar-03 05:32N 60°03' E 027°15'8810.9
2015-Mar-02 21:31N 59°53' E 030°09'2 0.8
2015-Mar-02 19:28N 59°53' E 030°12'0 0.0
2015-Mar-02 18:19N 59°53' E 030°12'0 0.0
2015-Mar-02 17:16N 59°53' E 030°12'0 0.0
2015-Mar-02 16:22N 59°53' E 030°12'0 0.0
2015-Mar-02 15:19N 59°53' E 030°12'0 0.0
2015-Mar-02 11:18N 59°53' E 030°12'0 0.0
2015-Mar-02 10:33N 59°53' E 030°12'0 0.0
2015-Mar-02 06:18N 59°53' E 030°12'0 0.0
2015-Mar-02 05:33N 59°53' E 030°12'0 0.0
2015-Mar-02 04:33N 59°53' E 030°12'0 0.0
2015-Mar-02 03:27N 59°53' E 030°12'0 0.0
2015-Mar-02 00:21N 59°53' E 030°12'1 1.2
2015-Mar-01 23:33N 59°53' E 030°13'0 0.2
2015-Mar-01 22:32N 59°54' E 030°14'0 0.0
2015-Mar-01 21:32N 59°54' E 030°14'0 0.0
2015-Mar-01 20:32N 59°54' E 030°14'0 0.0
2015-Mar-01 19:32N 59°54' E 030°14'0 0.0
2015-Mar-01 18:32N 59°54' E 030°14'0 0.0
2015-Mar-01 17:32N 59°54' E 030°14'0 0.0
2015-Mar-01 16:32N 59°54' E 030°14'0 0.0
2015-Mar-01 15:32N 59°54' E 030°14'0 0.0
2015-Mar-01 14:32N 59°54' E 030°14'0 0.0
2015-Mar-01 13:32N 59°54' E 030°14'0 0.0
2015-Mar-01 12:32N 59°54' E 030°14'0 0.0
2015-Mar-01 11:29N 59°54' E 030°14'0 0.0
2015-Mar-01 10:32N 59°54' E 030°14'0 0.0
2015-Mar-01 09:32N 59°54' E 030°14'0 0.0
2015-Mar-01 08:32N 59°54' E 030°14'0 0.0
2015-Mar-01 07:32N 59°54' E 030°14'0 0.0
2015-Mar-01 06:32N 59°54' E 030°14'0 0.0
2015-Mar-01 05:32N 59°54' E 030°14'2 2.4
2015-Mar-01 04:33N 59°53' E 030°09'76 7.3
2015-Feb-28 18:15N 60°09' E 027°41'812.2
2015-Feb-28 17:33N 60°05' E 027°27'1312.6
2015-Feb-28 16:33N 59°58' E 027°05'1212.1
2015-Feb-28 15:33N 59°60' E 026°41'1312.6
2015-Feb-28 14:33N 59°56' E 026°17'1514.9
2015-Feb-28 13:34N 59°52' E 025°48'1716.8
2015-Feb-28 12:34N 59°49' E 025°16'1716.9
2015-Feb-28 11:33N 59°45' E 024°43'1716.6
2015-Feb-28 10:33N 59°41' E 024°11'1818.3
2015-Feb-28 09:33N 59°35' E 023°36'2019.8
2015-Feb-28 08:32N 59°28' E 022°59'4219.5
2015-Feb-28 06:23N 59°06' E 021°49'14019.9
2015-Feb-27 23:19N 57°14' E 019°10'15319.5
2015-Feb-27 15:28N 55°39' E 015°33'1819.8
2015-Feb-27 14:34N 55°31' E 015°04'1919.2
2015-Feb-27 13:34N 55°21' E 014°36'2019.6
2015-Feb-27 12:34N 55°05' E 014°15'1919.0
2015-Feb-27 11:34N 54°57' E 013°45'1919.3
2015-Feb-27 10:34N 54°51' E 013°13'1918.6
2015-Feb-27 09:33N 54°45' E 012°43'1716.7
2015-Feb-27 08:33N 54°36' E 012°19'1313.5
2015-Feb-27 07:34N 54°25' E 012°05'1818.3
2015-Feb-27 06:34N 54°28' E 011°34'1818.1
2015-Feb-27 05:33N 54°35' E 011°06'11414.2
2015-Feb-26 21:33N 56°28' E 011°33'1817.7
2015-Feb-26 20:33N 56°43' E 011°49'1716.7
2015-Feb-26 19:32N 56°60' E 011°42'1717.6
2015-Feb-26 18:33N 57°16' E 011°31'1817.7
2015-Feb-26 17:33N 57°32' E 011°16'1818.0
2015-Feb-26 16:33N 57°44' E 010°51'1211.7
2015-Feb-26 15:33N 57°48' E 010°31'1716.6
2015-Feb-26 14:33N 57°46' E 009°59'8119.6
2015-Feb-26 10:24N 57°03' E 007°51'9619.8
2015-Feb-26 05:33N 55°35' E 006°44'1615.8
2015-Feb-26 04:33N 55°19' E 006°44'1919.5
2015-Feb-26 03:33N 55°00' E 006°53'2120.9
2015-Feb-26 02:33N 54°41' E 007°08'1717.3
2015-Feb-26 01:33N 54°25' E 007°19'1918.7
2015-Feb-26 00:33N 54°08' E 007°33'1817.6
2015-Feb-25 23:33N 53°53' E 007°48'1413.9
2015-Feb-25 22:33N 53°47' E 008°10'1615.5
2015-Feb-25 21:33N 53°37' E 008°29'2 1.8
2015-Feb-25 20:33N 53°35' E 008°31'0 0.0
2015-Feb-25 19:33N 53°35' E 008°31'0 0.0
2015-Feb-25 18:33N 53°35' E 008°31'0 0.0
2015-Feb-25 17:33N 53°35' E 008°31'0 0.0
2015-Feb-25 16:33N 53°35' E 008°31'0 0.0
2015-Feb-25 15:33N 53°35' E 008°31'0 0.0
2015-Feb-25 14:33N 53°35' E 008°31'0 0.0
2015-Feb-25 13:33N 53°35' E 008°31'0 0.0
2015-Feb-25 12:33N 53°35' E 008°31'0 0.0
2015-Feb-25 11:33N 53°35' E 008°31'0 0.0
2015-Feb-25 10:33N 53°35' E 008°31'0 0.0
2015-Feb-25 09:33N 53°35' E 008°31'0 0.0
2015-Feb-25 08:33N 53°35' E 008°31'0 0.0
2015-Feb-25 07:33N 53°35' E 008°31'0 0.0
2015-Feb-25 06:33N 53°35' E 008°31'0 0.0
2015-Feb-25 05:33N 53°35' E 008°31'0 0.0
2015-Feb-25 04:33N 53°35' E 008°31'0 0.0
2015-Feb-25 03:33N 53°35' E 008°31'0 0.0
2015-Feb-25 02:33N 53°35' E 008°31'0 0.0
2015-Feb-25 01:33N 53°35' E 008°31'0 0.0
2015-Feb-25 00:33N 53°35' E 008°31'0 0.0
2015-Feb-24 23:33N 53°35' E 008°31'0 0.0
2015-Feb-24 22:33N 53°35' E 008°31'0 0.0
2015-Feb-24 21:33N 53°35' E 008°31'0 0.0
2015-Feb-24 20:33N 53°35' E 008°31'0 0.0
2015-Feb-24 19:33N 53°35' E 008°31'0 0.0
2015-Feb-24 18:33N 53°35' E 008°31'0 0.0
2015-Feb-24 17:33N 53°35' E 008°31'1 1.1
2015-Feb-24 16:33N 53°36' E 008°30'1111.3
2015-Feb-24 15:33N 53°43' E 008°16'1312.8
2015-Feb-24 14:34N 53°51' E 007°58'7 6.3
2015-Feb-24 13:29N 53°55' E 007°49'0 0.1
2015-Feb-24 12:29N 53°55' E 007°49'0 0.0
2015-Feb-24 11:11N 53°55' E 007°49'0 0.0
2015-Feb-24 10:29N 53°55' E 007°49'0 0.0
2015-Feb-24 09:32N 53°55' E 007°49'0 0.0
2015-Feb-24 08:23N 53°55' E 007°49'0 0.0
2015-Feb-24 07:29N 53°55' E 007°49'0 0.0
2015-Feb-24 06:26N 53°55' E 007°49'0 0.0
2015-Feb-24 05:29N 53°55' E 007°49'0 0.0
2015-Feb-24 04:23N 53°55' E 007°49'0 0.0
2015-Feb-24 03:29N 53°55' E 007°49'0 0.0
2015-Feb-24 02:23N 53°55' E 007°49'0 0.0
2015-Feb-24 01:23N 53°55' E 007°49'0 0.0
2015-Feb-24 00:32N 53°55' E 007°49'0 0.0
2015-Feb-23 23:32N 53°55' E 007°49'0 0.0
2015-Feb-23 22:32N 53°55' E 007°49'0 0.1
2015-Feb-23 21:29N 53°55' E 007°49'0 0.1
2015-Feb-23 20:32N 53°55' E 007°49'0 0.1
2015-Feb-23 19:29N 53°55' E 007°49'0 0.0
2015-Feb-23 18:32N 53°55' E 007°49'0 0.0
2015-Feb-23 17:32N 53°55' E 007°49'0 0.1
2015-Feb-23 16:26N 53°55' E 007°49'0 0.1
2015-Feb-23 15:23N 53°55' E 007°49'0 0.0
2015-Feb-23 14:32N 53°55' E 007°49'0 0.0
2015-Feb-23 13:17N 53°55' E 007°49'0 0.0
2015-Feb-23 12:26N 53°55' E 007°49'0 0.0
2015-Feb-23 11:20N 53°55' E 007°49'0 0.0
2015-Feb-23 10:23N 53°55' E 007°49'0 0.0
2015-Feb-23 09:23N 53°55' E 007°49'0 0.1
2015-Feb-23 08:29N 53°55' E 007°49'0 0.0
2015-Feb-23 07:26N 53°55' E 007°49'0 0.1
2015-Feb-23 06:29N 53°55' E 007°49'0 0.0
2015-Feb-23 05:32N 53°55' E 007°49'0 0.0
2015-Feb-23 04:32N 53°55' E 007°49'0 0.0
2015-Feb-23 03:32N 53°55' E 007°49'0 0.0
2015-Feb-23 02:29N 53°55' E 007°49'0 0.0
2015-Feb-23 01:32N 53°55' E 007°49'0 0.0
2015-Feb-23 00:23N 53°55' E 007°49'0 0.4
2015-Feb-22 23:33N 53°55' E 007°49'10 9.8
2015-Feb-22 22:33N 53°50' E 008°04'1616.1
2015-Feb-22 21:33N 53°39' E 008°24'6 5.8
2015-Feb-22 20:31N 53°35' E 008°31'0 0.0
2015-Feb-22 19:31N 53°35' E 008°31'  

Dump ship's entire track history